sensor_id;sensor_type;location;lat;lon;timestamp;temperature;humidity
24338;DHT22;12457;50.832;4.346;2022-12-18T00:00:58;-1.60;99.90
24338;DHT22;12457;50.832;4.346;2022-12-18T00:03:24;-1.60;99.90
24338;DHT22;12457;50.832;4.346;2022-12-18T00:05:51;-1.50;99.90
24338;DHT22;12457;50.832;4.346;2022-12-18T00:08:18;-1.70;99.90
24338;DHT22;12457;50.832;4.346;2022-12-18T00:10:44;-1.80;99.90
24338;DHT22;12457;50.832;4.346;2022-12-18T00:13:11;-1.90;99.90
24338;DHT22;12457;50.832;4.346;2022-12-18T00:15:38;-1.90;99.90
24338;DHT22;12457;50.832;4.346;2022-12-18T00:18:04;-1.90;99.90
24338;DHT22;12457;50.832;4.346;2022-12-18T00:20:30;-1.90;99.90
24338;DHT22;12457;50.832;4.346;2022-12-18T00:22:56;-2.00;99.90
24338;DHT22;12457;50.832;4.346;2022-12-18T00:25:22;-2.00;99.90
24338;DHT22;12457;50.832;4.346;2022-12-18T00:27:48;-2.00;99.90
24338;DHT22;12457;50.832;4.346;2022-12-18T00:30:20;-2.10;99.90
24338;DHT22;12457;50.832;4.346;2022-12-18T00:32:46;-2.20;99.90
24338;DHT22;12457;50.832;4.346;2022-12-18T00:35:11;-2.20;99.90
24338;DHT22;12457;50.832;4.346;2022-12-18T00:37:37;-2.20;99.90
24338;DHT22;12457;50.832;4.346;2022-12-18T00:40:03;-2.10;99.90
24338;DHT22;12457;50.832;4.346;2022-12-18T00:42:29;-1.90;99.90
24338;DHT22;12457;50.832;4.346;2022-12-18T00:45:13;-1.80;99.90
24338;DHT22;12457;50.832;4.346;2022-12-18T00:47:39;-1.90;99.90
24338;DHT22;12457;50.832;4.346;2022-12-18T00:50:06;-1.90;99.90
24338;DHT22;12457;50.832;4.346;2022-12-18T00:52:32;-2.00;99.90
24338;DHT22;12457;50.832;4.346;2022-12-18T00:54:57;-2.00;99.90
24338;DHT22;12457;50.832;4.346;2022-12-18T00:57:23;-2.00;99.90
24338;DHT22;12457;50.832;4.346;2022-12-18T00:59:49;-1.90;99.90
24338;DHT22;12457;50.832;4.346;2022-12-18T01:02:14;-2.00;99.90
24338;DHT22;12457;50.832;4.346;2022-12-18T01:04:40;-2.00;99.90
24338;DHT22;12457;50.832;4.346;2022-12-18T01:07:06;-2.10;99.90
24338;DHT22;12457;50.832;4.346;2022-12-18T01:09:31;-2.10;99.90
24338;DHT22;12457;50.832;4.346;2022-12-18T01:11:57;-2.10;99.90
24338;DHT22;12457;50.832;4.346;2022-12-18T01:14:22;-2.10;99.90
24338;DHT22;12457;50.832;4.346;2022-12-18T01:16:48;-2.20;99.90
24338;DHT22;12457;50.832;4.346;2022-12-18T01:19:14;-2.20;99.90
24338;DHT22;12457;50.832;4.346;2022-12-18T01:21:40;-2.30;99.90
24338;DHT22;12457;50.832;4.346;2022-12-18T01:24:05;-2.20;99.90
24338;DHT22;12457;50.832;4.346;2022-12-18T01:26:31;-2.30;99.90
24338;DHT22;12457;50.832;4.346;2022-12-18T01:28:57;-2.20;99.90
24338;DHT22;12457;50.832;4.346;2022-12-18T01:31:29;-2.30;99.90
24338;DHT22;12457;50.832;4.346;2022-12-18T01:33:55;-2.20;99.90
24338;DHT22;12457;50.832;4.346;2022-12-18T01:36:29;-2.10;99.90
24338;DHT22;12457;50.832;4.346;2022-12-18T01:38:56;-2.00;99.90
24338;DHT22;12457;50.832;4.346;2022-12-18T01:41:25;-2.00;99.90
24338;DHT22;12457;50.832;4.346;2022-12-18T01:46:27;-2.00;99.90
24338;DHT22;12457;50.832;4.346;2022-12-18T01:48:59;-2.00;99.90
24338;DHT22;12457;50.832;4.346;2022-12-18T01:51:27;-1.90;99.90
24338;DHT22;12457;50.832;4.346;2022-12-18T01:53:59;-2.00;99.90
24338;DHT22;12457;50.832;4.346;2022-12-18T01:56:29;-2.00;99.90
24338;DHT22;12457;50.832;4.346;2022-12-18T01:59:06;-2.00;99.90
24338;DHT22;12457;50.832;4.346;2022-12-18T02:01:33;-2.00;99.90
24338;DHT22;12457;50.832;4.346;2022-12-18T02:04:34;-2.00;99.90
24338;DHT22;12457;50.832;4.346;2022-12-18T02:09:51;-2.00;99.90
24338;DHT22;12457;50.832;4.346;2022-12-18T02:12:25;-2.00;99.90
24338;DHT22;12457;50.832;4.346;2022-12-18T02:15:18;-2.00;99.90
24338;DHT22;12457;50.832;4.346;2022-12-18T02:17:52;-1.90;99.90
24338;DHT22;12457;50.832;4.346;2022-12-18T02:20:49;-1.80;99.90
24338;DHT22;12457;50.832;4.346;2022-12-18T02:26:14;-2.10;99.90
24338;DHT22;12457;50.832;4.346;2022-12-18T02:28:51;-2.20;99.90
24338;DHT22;12457;50.832;4.346;2022-12-18T02:31:28;-2.20;99.90
24338;DHT22;12457;50.832;4.346;2022-12-18T02:33:57;-2.20;99.90
24338;DHT22;12457;50.832;4.346;2022-12-18T02:36:27;-2.20;99.90
24338;DHT22;12457;50.832;4.346;2022-12-18T02:38:54;-2.20;99.90
24338;DHT22;12457;50.832;4.346;2022-12-18T02:41:24;-2.20;99.90
24338;DHT22;12457;50.832;4.346;2022-12-18T02:43:57;-2.20;99.90
24338;DHT22;12457;50.832;4.346;2022-12-18T02:46:41;-2.10;99.90
24338;DHT22;12457;50.832;4.346;2022-12-18T02:51:47;-2.20;99.90
24338;DHT22;12457;50.832;4.346;2022-12-18T02:54:24;-2.40;99.90
24338;DHT22;12457;50.832;4.346;2022-12-18T02:56:57;-2.40;99.90
24338;DHT22;12457;50.832;4.346;2022-12-18T02:59:39;-2.50;99.90
24338;DHT22;12457;50.832;4.346;2022-12-18T03:02:42;-2.50;99.90
24338;DHT22;12457;50.832;4.346;2022-12-18T03:10:31;-2.50;99.90
24338;DHT22;12457;50.832;4.346;2022-12-18T03:13:20;-2.60;99.90
24338;DHT22;12457;50.832;4.346;2022-12-18T03:15:49;-2.60;99.90
24338;DHT22;12457;50.832;4.346;2022-12-18T03:18:39;-2.70;99.90
24338;DHT22;12457;50.832;4.346;2022-12-18T03:21:32;-2.80;99.90
24338;DHT22;12457;50.832;4.346;2022-12-18T03:23:59;-2.80;99.90
24338;DHT22;12457;50.832;4.346;2022-12-18T03:26:26;-2.80;99.90
24338;DHT22;12457;50.832;4.346;2022-12-18T03:28:56;-2.80;99.90
24338;DHT22;12457;50.832;4.346;2022-12-18T03:31:26;-2.80;99.90
24338;DHT22;12457;50.832;4.346;2022-12-18T03:33:56;-2.80;99.90
24338;DHT22;12457;50.832;4.346;2022-12-18T03:36:23;-2.80;99.90
24338;DHT22;12457;50.832;4.346;2022-12-18T03:38:52;-2.80;99.90
24338;DHT22;12457;50.832;4.346;2022-12-18T03:41:27;-2.80;99.90
24338;DHT22;12457;50.832;4.346;2022-12-18T03:46:33;-2.90;99.90
24338;DHT22;12457;50.832;4.346;2022-12-18T03:49:14;-2.90;99.90
24338;DHT22;12457;50.832;4.346;2022-12-18T03:51:50;-3.00;99.90
24338;DHT22;12457;50.832;4.346;2022-12-18T03:54:18;-3.00;99.90
24338;DHT22;12457;50.832;4.346;2022-12-18T03:56:54;-3.00;99.90
24338;DHT22;12457;50.832;4.346;2022-12-18T03:59:24;-3.00;99.90
24338;DHT22;12457;50.832;4.346;2022-12-18T04:01:52;-3.10;99.90
24338;DHT22;12457;50.832;4.346;2022-12-18T04:04:19;-3.10;99.90
24338;DHT22;12457;50.832;4.346;2022-12-18T04:06:46;-3.10;99.90
24338;DHT22;12457;50.832;4.346;2022-12-18T04:09:16;-3.10;99.90
24338;DHT22;12457;50.832;4.346;2022-12-18T04:11:42;-3.00;99.90
24338;DHT22;12457;50.832;4.346;2022-12-18T04:14:11;-3.00;99.90
24338;DHT22;12457;50.832;4.346;2022-12-18T04:16:37;-3.00;99.90
24338;DHT22;12457;50.832;4.346;2022-12-18T04:19:05;-3.00;99.90
24338;DHT22;12457;50.832;4.346;2022-12-18T04:21:31;-3.00;99.90
24338;DHT22;12457;50.832;4.346;2022-12-18T04:23:57;-3.10;99.90
24338;DHT22;12457;50.832;4.346;2022-12-18T04:26:23;-3.10;99.90
24338;DHT22;12457;50.832;4.346;2022-12-18T04:28:48;-3.00;99.90
24338;DHT22;12457;50.832;4.346;2022-12-18T04:31:14;-3.00;99.90
24338;DHT22;12457;50.832;4.346;2022-12-18T04:33:40;-3.00;99.90
24338;DHT22;12457;50.832;4.346;2022-12-18T04:36:06;-3.00;99.90
24338;DHT22;12457;50.832;4.346;2022-12-18T04:38:32;-3.00;99.90
24338;DHT22;12457;50.832;4.346;2022-12-18T04:41:00;-2.90;99.90
24338;DHT22;12457;50.832;4.346;2022-12-18T04:43:29;-2.90;99.90
24338;DHT22;12457;50.832;4.346;2022-12-18T04:46:02;-2.80;99.90
24338;DHT22;12457;50.832;4.346;2022-12-18T04:48:28;-2.80;99.90
24338;DHT22;12457;50.832;4.346;2022-12-18T04:50:59;-2.80;99.90
24338;DHT22;12457;50.832;4.346;2022-12-18T04:53:28;-2.80;99.90
24338;DHT22;12457;50.832;4.346;2022-12-18T04:56:04;-2.90;99.90
24338;DHT22;12457;50.832;4.346;2022-12-18T04:58:30;-2.90;99.90
24338;DHT22;12457;50.832;4.346;2022-12-18T05:00:57;-3.00;99.90
24338;DHT22;12457;50.832;4.346;2022-12-18T05:03:26;-3.10;99.90
24338;DHT22;12457;50.832;4.346;2022-12-18T05:05:53;-3.10;99.90
24338;DHT22;12457;50.832;4.346;2022-12-18T05:08:29;-3.00;99.90
24338;DHT22;12457;50.832;4.346;2022-12-18T05:11:14;-3.00;99.90
24338;DHT22;12457;50.832;4.346;2022-12-18T05:13:44;-3.00;99.90
24338;DHT22;12457;50.832;4.346;2022-12-18T05:16:11;-3.00;99.90
24338;DHT22;12457;50.832;4.346;2022-12-18T05:18:37;-3.10;99.90
24338;DHT22;12457;50.832;4.346;2022-12-18T05:21:04;-3.20;99.90
24338;DHT22;12457;50.832;4.346;2022-12-18T05:23:30;-3.20;99.90
24338;DHT22;12457;50.832;4.346;2022-12-18T05:26:04;-3.20;99.90
24338;DHT22;12457;50.832;4.346;2022-12-18T05:28:32;-3.20;99.90
24338;DHT22;12457;50.832;4.346;2022-12-18T05:30:59;-3.10;99.90
24338;DHT22;12457;50.832;4.346;2022-12-18T05:33:27;-3.20;99.90
24338;DHT22;12457;50.832;4.346;2022-12-18T05:35:58;-3.10;99.90
24338;DHT22;12457;50.832;4.346;2022-12-18T05:38:31;-3.10;99.90
24338;DHT22;12457;50.832;4.346;2022-12-18T05:41:03;-3.20;99.90
24338;DHT22;12457;50.832;4.346;2022-12-18T05:43:29;-3.20;99.90
24338;DHT22;12457;50.832;4.346;2022-12-18T05:45:55;-3.20;99.90
24338;DHT22;12457;50.832;4.346;2022-12-18T05:48:21;-3.20;99.90
24338;DHT22;12457;50.832;4.346;2022-12-18T05:50:49;-3.20;99.90
24338;DHT22;12457;50.832;4.346;2022-12-18T05:53:19;-3.10;99.90
24338;DHT22;12457;50.832;4.346;2022-12-18T05:55:46;-3.10;99.90
24338;DHT22;12457;50.832;4.346;2022-12-18T05:58:13;-3.10;99.90
24338;DHT22;12457;50.832;4.346;2022-12-18T06:00:46;-3.10;99.90
24338;DHT22;12457;50.832;4.346;2022-12-18T06:03:23;-3.10;99.90
24338;DHT22;12457;50.832;4.346;2022-12-18T06:05:49;-3.00;99.90
24338;DHT22;12457;50.832;4.346;2022-12-18T06:08:15;-3.00;99.90
24338;DHT22;12457;50.832;4.346;2022-12-18T06:10:48;-3.00;99.90
24338;DHT22;12457;50.832;4.346;2022-12-18T06:13:18;-3.00;99.90
24338;DHT22;12457;50.832;4.346;2022-12-18T06:15:44;-3.00;99.90
24338;DHT22;12457;50.832;4.346;2022-12-18T06:18:09;-3.00;99.90
24338;DHT22;12457;50.832;4.346;2022-12-18T06:20:35;-2.90;99.90
24338;DHT22;12457;50.832;4.346;2022-12-18T06:23:04;-2.90;99.90
24338;DHT22;12457;50.832;4.346;2022-12-18T06:25:29;-2.90;99.90
24338;DHT22;12457;50.832;4.346;2022-12-18T06:27:55;-2.90;99.90
24338;DHT22;12457;50.832;4.346;2022-12-18T06:30:22;-2.80;99.90
24338;DHT22;12457;50.832;4.346;2022-12-18T06:32:55;-2.80;99.90
24338;DHT22;12457;50.832;4.346;2022-12-18T06:35:22;-2.70;99.90
24338;DHT22;12457;50.832;4.346;2022-12-18T06:37:50;-2.60;99.90
24338;DHT22;12457;50.832;4.346;2022-12-18T06:40:16;-2.70;99.90
24338;DHT22;12457;50.832;4.346;2022-12-18T06:42:42;-2.80;99.90
24338;DHT22;12457;50.832;4.346;2022-12-18T06:45:08;-2.80;99.90
24338;DHT22;12457;50.832;4.346;2022-12-18T06:47:33;-2.70;99.90
24338;DHT22;12457;50.832;4.346;2022-12-18T06:49:59;-2.60;99.90
24338;DHT22;12457;50.832;4.346;2022-12-18T06:52:26;-2.70;99.90
24338;DHT22;12457;50.832;4.346;2022-12-18T06:54:52;-2.70;99.90
24338;DHT22;12457;50.832;4.346;2022-12-18T06:57:17;-2.70;99.90
24338;DHT22;12457;50.832;4.346;2022-12-18T06:59:43;-2.60;99.90
24338;DHT22;12457;50.832;4.346;2022-12-18T07:02:11;-2.70;99.90
24338;DHT22;12457;50.832;4.346;2022-12-18T07:04:39;-2.60;99.90
24338;DHT22;12457;50.832;4.346;2022-12-18T07:07:05;-2.70;99.90
24338;DHT22;12457;50.832;4.346;2022-12-18T07:09:31;-2.70;99.90
24338;DHT22;12457;50.832;4.346;2022-12-18T07:11:56;-2.60;99.90
24338;DHT22;12457;50.832;4.346;2022-12-18T07:14:22;-2.70;99.90
24338;DHT22;12457;50.832;4.346;2022-12-18T07:16:47;-2.60;99.90
24338;DHT22;12457;50.832;4.346;2022-12-18T07:19:16;-2.60;99.90
24338;DHT22;12457;50.832;4.346;2022-12-18T07:21:42;-2.60;99.90
24338;DHT22;12457;50.832;4.346;2022-12-18T07:24:10;-2.70;99.90
24338;DHT22;12457;50.832;4.346;2022-12-18T07:26:35;-2.70;99.90
24338;DHT22;12457;50.832;4.346;2022-12-18T07:29:01;-2.70;99.90
24338;DHT22;12457;50.832;4.346;2022-12-18T07:31:27;-2.70;99.90
24338;DHT22;12457;50.832;4.346;2022-12-18T07:33:53;-2.60;99.90
24338;DHT22;12457;50.832;4.346;2022-12-18T07:36:19;-2.60;99.90
24338;DHT22;12457;50.832;4.346;2022-12-18T07:38:49;-2.60;99.90
24338;DHT22;12457;50.832;4.346;2022-12-18T07:41:15;-2.60;99.90
24338;DHT22;12457;50.832;4.346;2022-12-18T07:43:44;-2.60;99.90
24338;DHT22;12457;50.832;4.346;2022-12-18T07:46:11;-2.70;99.90
24338;DHT22;12457;50.832;4.346;2022-12-18T07:48:42;-2.70;99.90
24338;DHT22;12457;50.832;4.346;2022-12-18T07:51:14;-2.60;99.90
24338;DHT22;12457;50.832;4.346;2022-12-18T07:53:43;-2.60;99.90
24338;DHT22;12457;50.832;4.346;2022-12-18T07:56:11;-2.50;99.90
24338;DHT22;12457;50.832;4.346;2022-12-18T07:58:41;-2.60;99.90
24338;DHT22;12457;50.832;4.346;2022-12-18T08:01:16;-2.60;99.90
24338;DHT22;12457;50.832;4.346;2022-12-18T08:03:42;-2.50;99.90
24338;DHT22;12457;50.832;4.346;2022-12-18T08:06:09;-2.50;99.90
24338;DHT22;12457;50.832;4.346;2022-12-18T08:08:35;-2.50;99.90
24338;DHT22;12457;50.832;4.346;2022-12-18T08:11:02;-2.50;99.90
24338;DHT22;12457;50.832;4.346;2022-12-18T08:13:28;-2.50;99.90
24338;DHT22;12457;50.832;4.346;2022-12-18T08:16:01;-2.50;99.90
24338;DHT22;12457;50.832;4.346;2022-12-18T08:18:31;-2.40;99.90
24338;DHT22;12457;50.832;4.346;2022-12-18T08:21:07;-2.40;99.90
24338;DHT22;12457;50.832;4.346;2022-12-18T08:23:36;-2.30;99.90
24338;DHT22;12457;50.832;4.346;2022-12-18T08:26:02;-2.20;99.90
24338;DHT22;12457;50.832;4.346;2022-12-18T08:28:31;-2.20;99.90
24338;DHT22;12457;50.832;4.346;2022-12-18T08:30:57;-2.10;99.90
24338;DHT22;12457;50.832;4.346;2022-12-18T08:33:28;-1.90;99.90
24338;DHT22;12457;50.832;4.346;2022-12-18T08:35:54;-1.80;99.90
24338;DHT22;12457;50.832;4.346;2022-12-18T08:38:19;-1.70;99.90
24338;DHT22;12457;50.832;4.346;2022-12-18T08:40:57;-1.60;99.90
24338;DHT22;12457;50.832;4.346;2022-12-18T08:43:23;-1.60;99.90
24338;DHT22;12457;50.832;4.346;2022-12-18T08:46:21;-1.50;99.90
24338;DHT22;12457;50.832;4.346;2022-12-18T08:48:49;-1.40;99.90
24338;DHT22;12457;50.832;4.346;2022-12-18T08:51:21;-1.30;99.90
24338;DHT22;12457;50.832;4.346;2022-12-18T08:53:47;-1.30;99.90
24338;DHT22;12457;50.832;4.346;2022-12-18T08:56:17;-1.20;99.90
24338;DHT22;12457;50.832;4.346;2022-12-18T08:58:45;-1.30;99.90
24338;DHT22;12457;50.832;4.346;2022-12-18T09:01:12;-1.20;99.90
24338;DHT22;12457;50.832;4.346;2022-12-18T09:03:39;-1.10;99.90
24338;DHT22;12457;50.832;4.346;2022-12-18T09:06:05;-0.90;99.90
24338;DHT22;12457;50.832;4.346;2022-12-18T09:08:35;-0.80;99.90
24338;DHT22;12457;50.832;4.346;2022-12-18T09:11:12;-0.70;99.90
24338;DHT22;12457;50.832;4.346;2022-12-18T09:13:41;-0.60;99.90
24338;DHT22;12457;50.832;4.346;2022-12-18T09:16:07;-0.50;99.90
24338;DHT22;12457;50.832;4.346;2022-12-18T09:18:33;-0.40;99.90
24338;DHT22;12457;50.832;4.346;2022-12-18T09:21:06;-0.20;99.90
24338;DHT22;12457;50.832;4.346;2022-12-18T09:23:36;-0.20;99.90
24338;DHT22;12457;50.832;4.346;2022-12-18T09:26:02;-0.30;99.90
24338;DHT22;12457;50.832;4.346;2022-12-18T09:28:28;-0.20;99.90
24338;DHT22;12457;50.832;4.346;2022-12-18T09:30:57;-0.20;1.00
24338;DHT22;12457;50.832;4.346;2022-12-18T09:33:22;-0.10;1.00
24338;DHT22;12457;50.832;4.346;2022-12-18T09:35:48;0.00;1.00
24338;DHT22;12457;50.832;4.346;2022-12-18T09:38:19;0.10;1.00
24338;DHT22;12457;50.832;4.346;2022-12-18T09:40:51;0.20;1.00
24338;DHT22;12457;50.832;4.346;2022-12-18T09:43:26;0.10;1.00
24338;DHT22;12457;50.832;4.346;2022-12-18T09:46:03;0.20;1.00
24338;DHT22;12457;50.832;4.346;2022-12-18T09:48:42;0.40;1.00
24338;DHT22;12457;50.832;4.346;2022-12-18T09:51:24;0.40;1.00
24338;DHT22;12457;50.832;4.346;2022-12-18T09:54:20;0.50;1.00
24338;DHT22;12457;50.832;4.346;2022-12-18T09:56:43;0.60;1.00
24338;DHT22;12457;50.832;4.346;2022-12-18T09:59:30;0.70;1.00
24338;DHT22;12457;50.832;4.346;2022-12-18T10:02:23;0.80;1.00
24338;DHT22;12457;50.832;4.346;2022-12-18T10:08:05;1.00;1.00
24338;DHT22;12457;50.832;4.346;2022-12-18T10:10:43;1.20;1.00
24338;DHT22;12457;50.832;4.346;2022-12-18T10:27:18;1.50;1.00
24338;DHT22;12457;50.832;4.346;2022-12-18T10:29:44;1.70;1.00
24338;DHT22;12457;50.832;4.346;2022-12-18T10:32:36;1.70;1.00
24338;DHT22;12457;50.832;4.346;2022-12-18T10:35:03;1.70;1.00
24338;DHT22;12457;50.832;4.346;2022-12-18T10:37:33;1.60;1.00
24338;DHT22;12457;50.832;4.346;2022-12-18T10:42:35;1.70;1.00
24338;DHT22;12457;50.832;4.346;2022-12-18T10:45:12;1.70;1.00
24338;DHT22;12457;50.832;4.346;2022-12-18T10:47:43;1.80;1.00
24338;DHT22;12457;50.832;4.346;2022-12-18T10:50:40;2.00;1.00
24338;DHT22;12457;50.832;4.346;2022-12-18T10:53:05;2.10;1.00
24338;DHT22;12457;50.832;4.346;2022-12-18T10:55:34;2.10;1.00
24338;DHT22;12457;50.832;4.346;2022-12-18T10:58:31;2.20;1.00
24338;DHT22;12457;50.832;4.346;2022-12-18T11:01:15;2.30;1.00
24338;DHT22;12457;50.832;4.346;2022-12-18T11:03:43;2.20;1.00
24338;DHT22;12457;50.832;4.346;2022-12-18T11:06:15;2.30;1.00
24338;DHT22;12457;50.832;4.346;2022-12-18T11:08:44;2.40;1.00
24338;DHT22;12457;50.832;4.346;2022-12-18T11:11:21;2.20;1.00
24338;DHT22;12457;50.832;4.346;2022-12-18T11:14:04;2.20;1.00
24338;DHT22;12457;50.832;4.346;2022-12-18T11:16:44;2.40;1.00
24338;DHT22;12457;50.832;4.346;2022-12-18T11:19:19;2.40;1.00
24338;DHT22;12457;50.832;4.346;2022-12-18T11:21:49;2.40;1.00
24338;DHT22;12457;50.832;4.346;2022-12-18T11:24:32;2.40;1.00
24338;DHT22;12457;50.832;4.346;2022-12-18T11:27:13;2.50;1.00
24338;DHT22;12457;50.832;4.346;2022-12-18T11:29:41;2.50;1.00
24338;DHT22;12457;50.832;4.346;2022-12-18T11:32:30;2.70;1.00
24338;DHT22;12457;50.832;4.346;2022-12-18T11:35:04;2.80;1.00
24338;DHT22;12457;50.832;4.346;2022-12-18T11:37:36;2.80;1.00
24338;DHT22;12457;50.832;4.346;2022-12-18T11:40:17;2.80;1.00
24338;DHT22;12457;50.832;4.346;2022-12-18T11:45:41;2.70;1.00
24338;DHT22;12457;50.832;4.346;2022-12-18T11:48:15;2.60;1.00
24338;DHT22;12457;50.832;4.346;2022-12-18T11:51:02;2.40;1.00
24338;DHT22;12457;50.832;4.346;2022-12-18T11:53:30;2.50;1.00
24338;DHT22;12457;50.832;4.346;2022-12-18T11:56:26;2.40;1.00
24338;DHT22;12457;50.832;4.346;2022-12-18T11:59:05;2.50;1.00
24338;DHT22;12457;50.832;4.346;2022-12-18T12:01:53;2.60;1.00
24338;DHT22;12457;50.832;4.346;2022-12-18T12:12:42;2.80;1.00
24338;DHT22;12457;50.832;4.346;2022-12-18T12:18:21;2.80;1.00
24338;DHT22;12457;50.832;4.346;2022-12-18T12:24:10;3.00;1.00
24338;DHT22;12457;50.832;4.346;2022-12-18T12:29:42;2.90;1.00
24338;DHT22;12457;50.832;4.346;2022-12-18T12:40:13;3.20;1.00
24338;DHT22;12457;50.832;4.346;2022-12-18T12:45:48;3.00;1.00
24338;DHT22;12457;50.832;4.346;2022-12-18T12:50:46;2.90;1.00
24338;DHT22;12457;50.832;4.346;2022-12-18T12:53:23;2.90;1.00
24338;DHT22;12457;50.832;4.346;2022-12-18T12:55:51;2.90;1.00
24338;DHT22;12457;50.832;4.346;2022-12-18T12:58:29;2.90;1.00
24338;DHT22;12457;50.832;4.346;2022-12-18T13:01:22;2.90;1.00
24338;DHT22;12457;50.832;4.346;2022-12-18T13:04:02;2.90;1.00
24338;DHT22;12457;50.832;4.346;2022-12-18T13:06:42;3.10;1.00
24338;DHT22;12457;50.832;4.346;2022-12-18T13:09:08;3.10;1.00
24338;DHT22;12457;50.832;4.346;2022-12-18T13:11:44;3.00;1.00
24338;DHT22;12457;50.832;4.346;2022-12-18T13:14:37;2.90;1.00
24338;DHT22;12457;50.832;4.346;2022-12-18T13:17:28;2.90;1.00
24338;DHT22;12457;50.832;4.346;2022-12-18T13:20:10;2.70;1.00
24338;DHT22;12457;50.832;4.346;2022-12-18T13:22:39;2.70;1.00
24338;DHT22;12457;50.832;4.346;2022-12-18T13:28:12;2.80;1.00
24338;DHT22;12457;50.832;4.346;2022-12-18T13:30:44;2.70;1.00
24338;DHT22;12457;50.832;4.346;2022-12-18T13:38:42;2.70;1.00
24338;DHT22;12457;50.832;4.346;2022-12-18T13:43:53;2.50;1.00
24338;DHT22;12457;50.832;4.346;2022-12-18T13:46:30;2.50;1.00
24338;DHT22;12457;50.832;4.346;2022-12-18T13:51:44;2.50;1.00
24338;DHT22;12457;50.832;4.346;2022-12-18T13:54:34;2.60;1.00
24338;DHT22;12457;50.832;4.346;2022-12-18T13:57:02;2.60;1.00
24338;DHT22;12457;50.832;4.346;2022-12-18T13:59:38;2.70;1.00
24338;DHT22;12457;50.832;4.346;2022-12-18T14:02:14;2.80;1.00
24338;DHT22;12457;50.832;4.346;2022-12-18T14:04:40;2.80;1.00
24338;DHT22;12457;50.832;4.346;2022-12-18T14:07:07;2.80;1.00
24338;DHT22;12457;50.832;4.346;2022-12-18T14:09:40;2.70;1.00
24338;DHT22;12457;50.832;4.346;2022-12-18T14:12:18;2.60;1.00
24338;DHT22;12457;50.832;4.346;2022-12-18T14:15:09;2.50;1.00
24338;DHT22;12457;50.832;4.346;2022-12-18T14:17:42;2.50;1.00
24338;DHT22;12457;50.832;4.346;2022-12-18T14:20:14;2.50;1.00
24338;DHT22;12457;50.832;4.346;2022-12-18T14:22:46;2.50;1.00
24338;DHT22;12457;50.832;4.346;2022-12-18T14:25:17;2.50;1.00
24338;DHT22;12457;50.832;4.346;2022-12-18T14:27:52;2.40;1.00
24338;DHT22;12457;50.832;4.346;2022-12-18T14:30:46;2.50;1.00
24338;DHT22;12457;50.832;4.346;2022-12-18T14:33:13;2.50;1.00
24338;DHT22;12457;50.832;4.346;2022-12-18T14:35:53;2.60;1.00
24338;DHT22;12457;50.832;4.346;2022-12-18T14:38:25;2.50;1.00
24338;DHT22;12457;50.832;4.346;2022-12-18T14:41:00;2.70;1.00
24338;DHT22;12457;50.832;4.346;2022-12-18T14:43:28;2.70;1.00
24338;DHT22;12457;50.832;4.346;2022-12-18T14:45:54;2.70;1.00
24338;DHT22;12457;50.832;4.346;2022-12-18T14:48:21;2.80;1.00
24338;DHT22;12457;50.832;4.346;2022-12-18T14:50:59;2.80;1.00
24338;DHT22;12457;50.832;4.346;2022-12-18T14:53:34;2.80;1.00
24338;DHT22;12457;50.832;4.346;2022-12-18T14:56:02;2.60;1.00
24338;DHT22;12457;50.832;4.346;2022-12-18T14:58:28;2.60;1.00
24338;DHT22;12457;50.832;4.346;2022-12-18T15:00:53;2.60;1.00
24338;DHT22;12457;50.832;4.346;2022-12-18T15:03:21;2.60;1.00
24338;DHT22;12457;50.832;4.346;2022-12-18T15:05:47;2.50;1.00
24338;DHT22;12457;50.832;4.346;2022-12-18T15:08:46;2.40;1.00
24338;DHT22;12457;50.832;4.346;2022-12-18T15:14:21;2.40;1.00
24338;DHT22;12457;50.832;4.346;2022-12-18T15:16:51;2.40;1.00
24338;DHT22;12457;50.832;4.346;2022-12-18T15:19:17;2.30;1.00
24338;DHT22;12457;50.832;4.346;2022-12-18T15:21:44;2.20;1.00
24338;DHT22;12457;50.832;4.346;2022-12-18T15:24:18;2.20;1.00
24338;DHT22;12457;50.832;4.346;2022-12-18T15:26:45;2.30;1.00
24338;DHT22;12457;50.832;4.346;2022-12-18T15:29:21;2.30;1.00
24338;DHT22;12457;50.832;4.346;2022-12-18T15:32:15;2.20;1.00
24338;DHT22;12457;50.832;4.346;2022-12-18T15:34:44;2.20;1.00
24338;DHT22;12457;50.832;4.346;2022-12-18T15:37:10;2.00;1.00
24338;DHT22;12457;50.832;4.346;2022-12-18T15:39:37;2.10;1.00
24338;DHT22;12457;50.832;4.346;2022-12-18T15:42:03;2.10;1.00
24338;DHT22;12457;50.832;4.346;2022-12-18T15:44:47;2.10;1.00
24338;DHT22;12457;50.832;4.346;2022-12-18T15:47:16;2.20;1.00
24338;DHT22;12457;50.832;4.346;2022-12-18T15:49:43;2.20;1.00
24338;DHT22;12457;50.832;4.346;2022-12-18T15:52:12;2.20;1.00
24338;DHT22;12457;50.832;4.346;2022-12-18T15:54:38;2.20;1.00
24338;DHT22;12457;50.832;4.346;2022-12-18T15:57:24;2.30;1.00
24338;DHT22;12457;50.832;4.346;2022-12-18T15:59:55;2.10;1.00
24338;DHT22;12457;50.832;4.346;2022-12-18T16:02:23;2.20;1.00
24338;DHT22;12457;50.832;4.346;2022-12-18T16:04:51;2.20;1.00
24338;DHT22;12457;50.832;4.346;2022-12-18T16:07:18;2.20;1.00
24338;DHT22;12457;50.832;4.346;2022-12-18T16:09:44;2.10;1.00
24338;DHT22;12457;50.832;4.346;2022-12-18T16:12:17;2.20;1.00
24338;DHT22;12457;50.832;4.346;2022-12-18T16:14:43;2.20;1.00
24338;DHT22;12457;50.832;4.346;2022-12-18T16:17:11;2.20;1.00
24338;DHT22;12457;50.832;4.346;2022-12-18T16:19:38;2.30;1.00
24338;DHT22;12457;50.832;4.346;2022-12-18T16:22:04;2.30;1.00
24338;DHT22;12457;50.832;4.346;2022-12-18T16:24:33;2.30;1.00
24338;DHT22;12457;50.832;4.346;2022-12-18T16:27:00;2.10;1.00
24338;DHT22;12457;50.832;4.346;2022-12-18T16:29:27;2.10;1.00
24338;DHT22;12457;50.832;4.346;2022-12-18T16:31:57;2.20;1.00
24338;DHT22;12457;50.832;4.346;2022-12-18T16:34:29;2.20;1.00
24338;DHT22;12457;50.832;4.346;2022-12-18T16:37:04;2.10;1.00
24338;DHT22;12457;50.832;4.346;2022-12-18T16:39:30;2.20;1.00
24338;DHT22;12457;50.832;4.346;2022-12-18T16:41:57;2.30;1.00
24338;DHT22;12457;50.832;4.346;2022-12-18T16:44:23;2.40;1.00
24338;DHT22;12457;50.832;4.346;2022-12-18T16:46:49;2.20;1.00
24338;DHT22;12457;50.832;4.346;2022-12-18T16:49:16;2.30;1.00
24338;DHT22;12457;50.832;4.346;2022-12-18T16:51:43;2.30;1.00
24338;DHT22;12457;50.832;4.346;2022-12-18T16:54:10;2.30;1.00
24338;DHT22;12457;50.832;4.346;2022-12-18T16:56:37;2.30;1.00
24338;DHT22;12457;50.832;4.346;2022-12-18T16:59:03;2.30;1.00
24338;DHT22;12457;50.832;4.346;2022-12-18T17:01:30;2.30;1.00
24338;DHT22;12457;50.832;4.346;2022-12-18T17:03:59;2.30;1.00
24338;DHT22;12457;50.832;4.346;2022-12-18T17:06:26;2.30;1.00
24338;DHT22;12457;50.832;4.346;2022-12-18T17:11:23;2.30;1.00
24338;DHT22;12457;50.832;4.346;2022-12-18T17:13:48;2.40;1.00
24338;DHT22;12457;50.832;4.346;2022-12-18T17:16:14;2.30;1.00
24338;DHT22;12457;50.832;4.346;2022-12-18T17:18:41;2.40;1.00
24338;DHT22;12457;50.832;4.346;2022-12-18T17:21:09;2.30;1.00
24338;DHT22;12457;50.832;4.346;2022-12-18T17:23:35;2.30;1.00
24338;DHT22;12457;50.832;4.346;2022-12-18T17:26:02;2.30;1.00
24338;DHT22;12457;50.832;4.346;2022-12-18T17:28:29;2.30;1.00
24338;DHT22;12457;50.832;4.346;2022-12-18T17:30:55;2.20;1.90
24338;DHT22;12457;50.832;4.346;2022-12-18T17:33:23;2.20;11.30
24338;DHT22;12457;50.832;4.346;2022-12-18T17:35:49;2.10;14.30
24338;DHT22;12457;50.832;4.346;2022-12-18T17:38:14;2.20;21.20